createdAt,value
2018-04-11T00:00:07.031Z,5.43
2018-04-11T00:01:13.239Z,6.20
2018-04-11T00:02:19.471Z,5.07
2018-04-11T00:03:25.805Z,5.20
2018-04-11T00:04:32.066Z,5.18
2018-04-11T00:05:44.932Z,5.10
2018-04-11T00:06:53.400Z,5.15
2018-04-11T00:07:59.408Z,5.53
2018-04-11T00:09:04.918Z,5.40
2018-04-11T00:10:10.923Z,5.05
2018-04-11T00:11:16.899Z,5.60
2018-04-11T00:12:23.156Z,5.85
2018-04-11T00:13:29.407Z,5.15
2018-04-11T00:14:35.322Z,6.20
2018-04-11T00:15:41.533Z,6.15
2018-04-11T00:16:47.735Z,5.68
2018-04-11T00:17:53.995Z,5.75
2018-04-11T00:19:00.302Z,5.57
2018-04-11T00:20:06.576Z,5.20
2018-04-11T00:21:14.336Z,5.80
2018-04-11T00:22:22.015Z,6.75
2018-04-11T00:23:29.240Z,6.25
2018-04-11T00:24:35.543Z,5.87
2018-04-11T00:25:41.832Z,6.12
2018-04-11T00:26:48.149Z,5.12
2018-04-11T00:27:54.583Z,6.80
2018-04-11T00:29:01.219Z,5.90
2018-04-11T00:30:07.481Z,6.15
2018-04-11T00:31:13.671Z,6.37
2018-04-11T00:32:19.897Z,5.70
2018-04-11T00:33:26.251Z,6.28
2018-04-11T00:34:32.404Z,6.60
2018-04-11T00:35:38.647Z,5.65
2018-04-11T00:36:44.966Z,6.18
2018-04-11T00:37:53.803Z,6.47
2018-04-11T00:38:59.988Z,5.53
2018-04-11T00:40:06.359Z,5.18
2018-04-11T00:41:12.619Z,5.40
2018-04-11T00:42:18.909Z,5.72
2018-04-11T00:43:25.168Z,6.30
2018-04-11T00:44:31.391Z,6.00
2018-04-11T00:45:37.560Z,6.10
2018-04-11T00:46:43.787Z,6.43
2018-04-11T00:47:55.604Z,6.18
2018-04-11T00:49:01.932Z,6.10
2018-04-11T00:50:08.176Z,6.68
2018-04-11T00:51:14.459Z,7.03
2018-04-11T00:52:20.793Z,5.90
2018-04-11T00:53:28.650Z,5.82
2018-04-11T00:54:34.928Z,5.60
2018-04-11T00:55:41.178Z,6.07
2018-04-11T00:56:47.501Z,6.72
2018-04-11T00:57:53.431Z,5.85
2018-04-11T00:58:59.651Z,6.35
2018-04-11T01:00:05.567Z,5.80
2018-04-11T01:01:11.791Z,6.43
2018-04-11T01:02:18.024Z,7.03
2018-04-11T01:03:24.356Z,6.00
2018-04-11T01:04:30.615Z,6.28
2018-04-11T01:05:36.837Z,6.62
2018-04-11T01:06:43.060Z,5.97
2018-04-11T01:07:49.347Z,6.32
2018-04-11T01:08:55.580Z,5.97
2018-04-11T01:10:01.555Z,6.90
2018-04-11T01:11:07.449Z,6.65
2018-04-11T01:12:13.676Z,6.12
2018-04-11T01:13:20.204Z,6.68
2018-04-11T01:14:26.365Z,6.25
2018-04-11T01:15:32.639Z,6.15
2018-04-11T01:16:39.580Z,6.43
2018-04-11T01:17:45.863Z,5.87
2018-04-11T01:18:52.091Z,6.10
2018-04-11T01:19:58.409Z,7.30
2018-04-11T01:21:04.679Z,6.45
2018-04-11T01:22:10.675Z,6.53
2018-04-11T01:23:17.499Z,6.78
2018-04-11T01:24:26.515Z,6.70
2018-04-11T01:25:32.837Z,6.35
2018-04-11T01:26:39.199Z,6.40
2018-04-11T01:27:45.417Z,6.75
2018-04-11T01:28:55.028Z,6.78
2018-04-11T01:30:01.188Z,6.55
2018-04-11T01:31:07.110Z,7.18
2018-04-11T01:32:13.298Z,7.20
2018-04-11T01:33:19.539Z,7.20
2018-04-11T01:34:25.751Z,6.50
2018-04-11T01:35:31.943Z,6.80
2018-04-11T01:36:38.180Z,6.75
2018-04-11T01:37:44.344Z,6.60
2018-04-11T01:38:50.869Z,6.57
2018-04-11T01:39:56.883Z,6.85
2018-04-11T01:41:03.235Z,7.28
2018-04-11T01:42:09.521Z,6.62
2018-04-11T01:43:15.482Z,6.80
2018-04-11T01:44:23.997Z,6.50
2018-04-11T01:45:32.694Z,7.28
2018-04-11T01:46:38.950Z,6.55
2018-04-11T01:47:45.139Z,6.78
2018-04-11T01:48:51.386Z,6.12
2018-04-11T01:50:02.719Z,6.68
2018-04-11T01:51:11.396Z,7.53
2018-04-11T01:52:18.810Z,7.57
2018-04-11T01:53:25.015Z,7.80
2018-04-11T01:54:31.044Z,7.05
2018-04-11T01:55:46.623Z,6.70
2018-04-11T01:56:52.843Z,7.05
2018-04-11T01:57:59.091Z,7.45
2018-04-11T01:59:05.089Z,7.18
2018-04-11T02:00:11.400Z,6.25
2018-04-11T02:01:17.592Z,7.22
2018-04-11T02:02:23.825Z,7.03
2018-04-11T02:03:33.995Z,6.93
2018-04-11T02:04:39.970Z,7.32
2018-04-11T02:05:46.239Z,7.70
2018-04-11T02:06:52.624Z,7.22
2018-04-11T02:07:58.834Z,7.20
2018-04-11T02:09:03.896Z,7.90
2018-04-11T02:10:09.934Z,7.25
2018-04-11T02:11:15.880Z,7.15
2018-04-11T02:12:22.128Z,6.90
2018-04-11T02:13:28.137Z,7.22
2018-04-11T02:14:34.205Z,6.95
2018-04-11T02:15:41.388Z,6.75
2018-04-11T02:16:47.541Z,7.15
2018-04-11T02:17:53.592Z,6.45
2018-04-11T02:19:00.596Z,6.70
2018-04-11T02:20:06.844Z,7.28
2018-04-11T02:21:13.454Z,7.20
2018-04-11T02:22:19.868Z,6.72
2018-04-11T02:23:26.182Z,7.43
2018-04-11T02:24:32.399Z,6.60
2018-04-11T02:25:38.664Z,8.13
2018-04-11T02:26:45.149Z,6.70
2018-04-11T02:27:52.053Z,6.90
2018-04-11T02:28:58.261Z,7.07
2018-04-11T02:30:04.253Z,7.30
2018-04-11T02:31:12.848Z,7.10
2018-04-11T02:32:20.222Z,6.78
2018-04-11T02:33:26.464Z,7.15
2018-04-11T02:34:32.432Z,7.03
2018-04-11T02:35:38.687Z,6.90
2018-04-11T02:36:44.918Z,7.20
2018-04-11T02:37:51.955Z,7.45
2018-04-11T02:38:58.719Z,7.53
2018-04-11T02:40:04.278Z,7.10
2018-04-11T02:41:10.558Z,7.35
2018-04-11T02:42:16.864Z,8.13
2018-04-11T02:43:23.055Z,7.75
2018-04-11T02:44:29.393Z,7.37
2018-04-11T02:45:35.727Z,7.32
2018-04-11T02:46:42.962Z,7.70
2018-04-11T02:47:50.711Z,7.25
2018-04-11T02:48:58.215Z,7.50
2018-04-11T02:50:04.115Z,8.15
2018-04-11T02:51:10.351Z,7.53
2018-04-11T02:52:17.531Z,8.13
2018-04-11T02:53:24.343Z,7.47
2018-04-11T02:54:30.615Z,7.25
2018-04-11T02:55:36.944Z,7.15
2018-04-11T02:56:43.230Z,7.28
2018-04-11T02:57:49.425Z,8.07
2018-04-11T02:58:55.627Z,10.10
2018-04-11T03:00:02.559Z,8.35
2018-04-11T03:01:08.811Z,8.77
2018-04-11T03:02:15.087Z,7.55
2018-04-11T03:03:23.311Z,8.50
2018-04-11T03:04:29.541Z,8.10
2018-04-11T03:05:35.751Z,8.13
2018-04-11T03:06:42.269Z,8.38
2018-04-11T03:07:48.561Z,8.60
2018-04-11T03:08:54.883Z,8.18
2018-04-11T03:10:01.150Z,7.93
2018-04-11T03:11:07.470Z,7.78
2018-04-11T03:12:13.783Z,7.12
2018-04-11T03:13:19.956Z,8.02
2018-04-11T03:14:26.283Z,7.50
2018-04-11T03:15:32.621Z,7.62
2018-04-11T03:16:38.897Z,7.78
2018-04-11T03:17:45.188Z,7.65
2018-04-11T03:18:51.363Z,7.85
2018-04-11T03:19:57.700Z,7.53
2018-04-11T03:21:04.114Z,7.30
2018-04-11T03:22:10.099Z,7.07
2018-04-11T03:23:16.435Z,7.30
2018-04-11T03:24:22.651Z,7.45
2018-04-11T03:25:28.961Z,7.57
2018-04-11T03:26:35.169Z,9.10
2018-04-11T03:27:41.513Z,8.10
2018-04-11T03:28:47.799Z,8.45
2018-04-11T03:29:54.023Z,8.20
2018-04-11T03:30:59.785Z,7.72
2018-04-11T03:32:07.262Z,8.07
2018-04-11T03:33:13.544Z,7.85
2018-04-11T03:34:19.540Z,7.68
2018-04-11T03:35:25.870Z,7.60
2018-04-11T03:36:32.066Z,8.10
2018-04-11T03:37:38.307Z,7.80
2018-04-11T03:38:46.770Z,7.55
2018-04-11T03:39:52.931Z,7.62
2018-04-11T03:40:59.188Z,8.20
2018-04-11T03:42:05.793Z,7.43
2018-04-11T03:43:12.002Z,9.23
2018-04-11T03:44:18.210Z,8.30
2018-04-11T03:45:24.529Z,8.43
2018-04-11T03:46:30.730Z,9.70
2018-04-11T03:47:36.949Z,8.30
2018-04-11T03:48:43.138Z,8.68
2018-04-11T03:49:49.684Z,8.35
2018-04-11T03:50:59.734Z,7.53
2018-04-11T03:52:05.924Z,8.55
2018-04-11T03:53:12.171Z,7.80
2018-04-11T03:54:20.382Z,8.15
2018-04-11T03:55:27.524Z,7.53
2018-04-11T03:56:33.818Z,8.13
2018-04-11T03:57:39.917Z,8.18
2018-04-11T03:58:46.180Z,8.63
2018-04-11T03:59:52.432Z,8.20
2018-04-11T04:00:58.684Z,8.35
2018-04-11T04:02:04.931Z,8.48
2018-04-11T04:03:11.307Z,7.95
2018-04-11T04:04:17.460Z,8.60
2018-04-11T04:05:23.759Z,8.10
2018-04-11T04:06:29.948Z,7.68
2018-04-11T04:07:36.859Z,7.70
2018-04-11T04:08:44.518Z,8.10
2018-04-11T04:09:51.702Z,7.68
2018-04-11T04:10:58.932Z,7.20
2018-04-11T04:12:05.719Z,8.10
2018-04-11T04:13:12.070Z,8.27
2018-04-11T04:14:29.955Z,7.62
2018-04-11T04:15:52.164Z,8.30
2018-04-11T04:17:11.867Z,7.60
2018-04-11T04:18:28.828Z,7.62
2018-04-11T04:19:45.961Z,8.40
2018-04-11T04:20:52.347Z,7.03
2018-04-11T04:21:58.506Z,7.82
2018-04-11T04:23:05.641Z,8.57
2018-04-11T04:24:11.867Z,7.60
2018-04-11T04:25:18.065Z,7.80
2018-04-11T04:26:24.339Z,7.80
2018-04-11T04:27:30.619Z,7.40
2018-04-11T04:28:36.843Z,8.13
2018-04-11T04:29:43.128Z,8.10
2018-04-11T04:30:49.461Z,7.55
2018-04-11T04:31:55.652Z,8.52
2018-04-11T04:33:01.657Z,8.00
2018-04-11T04:34:07.886Z,8.90
2018-04-11T04:35:14.059Z,8.57
2018-04-11T04:36:20.385Z,8.60
2018-04-11T04:37:28.176Z,10.43
2018-04-11T04:38:34.396Z,9.57
2018-04-11T04:39:40.680Z,19.10
2018-04-11T04:40:48.135Z,18.58
2018-04-11T04:41:54.424Z,17.77
2018-04-11T04:43:00.814Z,20.08
2018-04-11T04:44:07.083Z,23.12
2018-04-11T04:45:13.077Z,19.30
2018-04-11T04:46:22.130Z,9.23
2018-04-11T04:47:28.296Z,8.65
2018-04-11T04:48:35.264Z,8.32
2018-04-11T04:49:41.783Z,9.95
2018-04-11T04:50:48.704Z,8.63
2018-04-11T04:51:54.772Z,7.68
2018-04-11T04:53:01.009Z,8.57
2018-04-11T04:54:07.359Z,9.40
2018-04-11T04:55:13.623Z,8.45
2018-04-11T04:56:19.919Z,8.57
2018-04-11T04:57:26.272Z,9.70
2018-04-11T04:58:32.606Z,9.80
2018-04-11T04:59:38.879Z,7.95
2018-04-11T05:00:45.235Z,9.30
2018-04-11T05:01:53.732Z,9.90
2018-04-11T05:03:01.463Z,9.70
2018-04-11T05:04:07.751Z,9.65
2018-04-11T05:05:13.838Z,10.27
2018-04-11T05:06:20.109Z,9.98
2018-04-11T05:07:27.094Z,10.00
2018-04-11T05:08:33.412Z,10.25
2018-04-11T05:09:39.400Z,10.60
2018-04-11T05:10:45.718Z,10.50
2018-04-11T05:11:52.034Z,10.48
2018-04-11T05:12:58.920Z,9.85
2018-04-11T05:14:06.082Z,11.10
2018-04-11T05:15:12.716Z,10.30
2018-04-11T05:16:18.871Z,10.68
2018-04-11T05:17:27.681Z,11.27
2018-04-11T05:18:35.014Z,10.57
2018-04-11T05:19:46.565Z,10.85
2018-04-11T05:20:53.574Z,11.25
2018-04-11T05:21:59.977Z,11.10
2018-04-11T05:23:06.249Z,9.70
2018-04-11T05:24:12.235Z,10.50
2018-04-11T05:25:18.260Z,9.77
2018-04-11T05:26:25.341Z,10.60
2018-04-11T05:27:31.543Z,9.02
2018-04-11T05:28:37.600Z,11.00
2018-04-11T05:29:44.003Z,10.63
2018-04-11T05:30:50.968Z,10.98
2018-04-11T05:31:56.938Z,9.85
2018-04-11T05:33:04.910Z,10.38
2018-04-11T05:34:11.516Z,11.05
2018-04-11T05:35:17.550Z,10.10
2018-04-11T05:36:24.555Z,9.82
2018-04-11T05:37:30.795Z,10.07
2018-04-11T05:38:37.127Z,10.05
2018-04-11T05:39:53.527Z,9.43
2018-04-11T05:41:00.332Z,9.45
2018-04-11T05:42:07.151Z,9.77
2018-04-11T05:43:13.385Z,9.80
2018-04-11T05:44:19.566Z,9.05
2018-04-11T05:45:25.954Z,9.75
2018-04-11T05:46:32.210Z,9.52
2018-04-11T05:47:38.823Z,9.20
2018-04-11T05:48:45.056Z,9.32
2018-04-11T05:49:51.388Z,9.38
2018-04-11T05:50:57.694Z,8.80
2018-04-11T05:52:04.902Z,9.68
2018-04-11T05:53:11.129Z,8.75
2018-04-11T05:54:17.800Z,9.25
2018-04-11T05:55:24.073Z,9.55
2018-04-11T05:56:35.194Z,9.68
2018-04-11T05:57:41.478Z,9.38
2018-04-11T05:58:47.702Z,8.50
2018-04-11T05:59:54.030Z,9.20
2018-04-11T06:01:07.180Z,10.15
2018-04-11T06:02:16.555Z,9.50
2018-04-11T06:03:22.876Z,9.60
2018-04-11T06:04:29.295Z,9.82
2018-04-11T06:05:35.723Z,9.63
2018-04-11T06:06:42.108Z,9.70
2018-04-11T06:07:48.902Z,9.85
2018-04-11T06:08:55.270Z,9.45
2018-04-11T06:10:01.636Z,9.65
2018-04-11T06:11:08.007Z,9.30
2018-04-11T06:12:14.403Z,9.55
2018-04-11T06:13:20.751Z,10.68
2018-04-11T06:14:27.646Z,10.30
2018-04-11T06:15:34.231Z,9.35
2018-04-11T06:16:40.569Z,9.55
2018-04-11T06:17:46.884Z,10.82
2018-04-11T06:18:53.275Z,8.90
2018-04-11T06:19:59.710Z,10.70
2018-04-11T06:21:06.158Z,9.70
2018-04-11T06:22:17.332Z,9.70
2018-04-11T06:23:23.949Z,9.55
2018-04-11T06:24:30.282Z,9.98
2018-04-11T06:25:36.605Z,9.60
2018-04-11T06:26:42.719Z,10.23
2018-04-11T06:27:49.104Z,10.23
2018-04-11T06:28:55.443Z,9.63
2018-04-11T06:30:01.783Z,10.20
2018-04-11T06:31:08.071Z,9.45
2018-04-11T06:32:14.347Z,9.40
2018-04-11T06:33:20.754Z,9.65
2018-04-11T06:34:27.074Z,9.00
2018-04-11T06:35:33.492Z,10.18
2018-04-11T06:36:39.846Z,9.38
2018-04-11T06:37:46.112Z,9.63
2018-04-11T06:38:52.371Z,9.85
2018-04-11T06:39:58.932Z,8.68
2018-04-11T06:41:05.282Z,9.35
2018-04-11T06:42:11.703Z,9.63
2018-04-11T06:43:21.828Z,9.10
2018-04-11T06:44:28.604Z,9.07
2018-04-11T06:45:34.539Z,8.77
2018-04-11T06:46:40.968Z,9.40
2018-04-11T06:47:47.330Z,9.57
2018-04-11T06:48:53.628Z,10.25
2018-04-11T06:49:59.938Z,9.05
2018-04-11T06:51:06.156Z,8.65
2018-04-11T06:52:12.385Z,8.70
2018-04-11T06:53:18.659Z,8.45
2018-04-11T06:54:24.992Z,9.70
2018-04-11T06:55:31.405Z,9.68
2018-04-11T06:56:37.746Z,10.35
2018-04-11T06:57:43.914Z,9.52
2018-04-11T06:58:50.110Z,9.27
2018-04-11T06:59:56.208Z,9.77
2018-04-11T07:01:08.724Z,8.70
2018-04-11T07:02:15.230Z,10.90
2018-04-11T07:03:21.522Z,9.40
2018-04-11T07:04:32.679Z,10.05
2018-04-11T07:05:40.482Z,11.88
2018-04-11T07:06:47.027Z,10.77
2018-04-11T07:07:53.322Z,10.02
2018-04-11T07:08:59.664Z,10.00
2018-04-11T07:10:06.742Z,9.95
2018-04-11T07:11:12.959Z,9.23
2018-04-11T07:12:52.540Z,10.65
2018-04-11T07:13:58.883Z,11.32
2018-04-11T07:15:04.810Z,9.75
2018-04-11T07:16:11.181Z,10.07
2018-04-11T07:17:17.617Z,11.98
2018-04-11T07:18:23.903Z,10.60
2018-04-11T07:19:30.208Z,10.35
2018-04-11T07:20:36.616Z,10.82
2018-04-11T07:21:42.939Z,9.40
2018-04-11T07:22:49.282Z,10.05
2018-04-11T07:23:55.548Z,9.93
2018-04-11T07:25:01.655Z,10.07
2018-04-11T07:26:07.420Z,10.10
2018-04-11T07:27:14.053Z,10.93
2018-04-11T07:28:21.756Z,9.63
2018-04-11T07:29:28.121Z,10.60
2018-04-11T07:30:34.335Z,8.68
2018-04-11T07:31:40.672Z,9.57
2018-04-11T07:32:47.022Z,11.12
2018-04-11T07:33:53.267Z,9.77
2018-04-11T07:34:59.496Z,10.52
2018-04-11T07:36:06.326Z,10.10
2018-04-11T07:37:12.667Z,10.25
2018-04-11T07:38:18.941Z,10.25
2018-04-11T07:39:25.308Z,10.38
2018-04-11T07:40:31.560Z,10.70
2018-04-11T07:41:37.802Z,10.70
2018-04-11T07:42:43.783Z,10.32
2018-04-11T07:43:50.803Z,11.65
2018-04-11T07:44:57.121Z,10.75
2018-04-11T07:46:03.339Z,10.77
2018-04-11T07:47:13.220Z,10.75
2018-04-11T07:48:19.202Z,10.93
2018-04-11T07:49:25.770Z,10.20
2018-04-11T07:50:32.031Z,10.50
2018-04-11T07:51:38.270Z,11.55
2018-04-11T07:52:44.383Z,11.12
2018-04-11T07:53:50.873Z,10.52
2018-04-11T07:54:57.081Z,11.35
2018-04-11T07:56:03.296Z,11.30
2018-04-11T07:57:09.550Z,11.63
2018-04-11T07:58:15.847Z,10.60
2018-04-11T07:59:22.144Z,11.25
2018-04-11T08:00:28.703Z,11.20
2018-04-11T08:01:35.079Z,10.68
2018-04-11T08:02:41.405Z,11.27
2018-04-11T08:03:54.714Z,10.90
2018-04-11T08:05:00.734Z,11.52
2018-04-11T08:06:06.737Z,11.65
2018-04-11T08:07:12.969Z,11.15
2018-04-11T08:08:19.314Z,11.63
2018-04-11T08:09:25.639Z,11.55
2018-04-11T08:10:31.708Z,12.02
2018-04-11T08:11:38.048Z,12.80
2018-04-11T08:12:44.357Z,11.80
2018-04-11T08:13:50.645Z,11.45
2018-04-11T08:14:56.731Z,12.05
2018-04-11T08:16:03.071Z,11.93
2018-04-11T08:17:09.367Z,11.98
2018-04-11T08:18:15.611Z,14.82
2018-04-11T08:19:23.054Z,13.43
2018-04-11T08:20:29.013Z,12.95
2018-04-11T08:21:34.989Z,12.65
2018-04-11T08:22:41.247Z,12.55
2018-04-11T08:23:46.531Z,13.15
2018-04-11T08:24:52.841Z,13.70
2018-04-11T08:25:59.531Z,12.35
2018-04-11T08:27:06.290Z,13.55
2018-04-11T08:28:13.178Z,13.27
2018-04-11T08:29:19.207Z,13.23
2018-04-11T08:30:25.503Z,13.23
2018-04-11T08:31:31.638Z,12.98
2018-04-11T08:32:37.721Z,13.35
2018-04-11T08:33:43.978Z,13.50
2018-04-11T08:34:50.852Z,12.40
2018-04-11T08:35:59.108Z,13.77
2018-04-11T08:37:05.450Z,13.10
2018-04-11T08:38:11.745Z,12.63
2018-04-11T08:39:17.968Z,12.95
2018-04-11T08:40:24.148Z,12.95
2018-04-11T08:41:30.373Z,12.57
2018-04-11T08:42:36.811Z,13.02
2018-04-11T08:43:43.125Z,12.73
2018-04-11T08:44:49.435Z,12.68
2018-04-11T08:45:55.737Z,12.50
2018-04-11T08:47:02.041Z,12.00
2018-04-11T08:48:08.251Z,13.40
2018-04-11T08:49:18.152Z,13.90
2018-04-11T08:50:26.101Z,11.10
2018-04-11T08:51:33.194Z,12.52
2018-04-11T08:52:39.451Z,12.70
2018-04-11T08:53:45.865Z,11.95
2018-04-11T08:54:52.192Z,12.23
2018-04-11T08:55:58.479Z,12.37
2018-04-11T08:57:04.802Z,12.75
2018-04-11T08:58:17.939Z,11.43
2018-04-11T08:59:24.174Z,12.30
2018-04-11T09:00:30.457Z,13.48
2018-04-11T09:01:36.818Z,12.88
2018-04-11T09:02:43.104Z,12.02
2018-04-11T09:03:49.418Z,12.32
2018-04-11T09:04:55.655Z,11.65
2018-04-11T09:06:03.139Z,12.15
2018-04-11T09:07:16.084Z,12.55
2018-04-11T09:08:22.102Z,12.43
2018-04-11T09:09:28.680Z,11.65
2018-04-11T09:10:34.966Z,11.73
2018-04-11T09:11:41.379Z,12.07
2018-04-11T09:12:47.579Z,12.85
2018-04-11T09:13:53.955Z,13.45
2018-04-11T09:15:00.245Z,12.40
2018-04-11T09:16:06.549Z,13.00
2018-04-11T09:17:12.819Z,11.75
2018-04-11T09:18:19.054Z,14.05
2018-04-11T09:19:24.991Z,12.70
2018-04-11T09:20:31.312Z,13.05
2018-04-11T09:21:39.510Z,13.38
2018-04-11T09:22:46.992Z,13.75
2018-04-11T09:23:53.806Z,13.18
2018-04-11T09:25:00.106Z,13.40
2018-04-11T09:26:05.278Z,12.23
2018-04-11T09:27:11.411Z,13.20
2018-04-11T09:28:18.412Z,13.27
2018-04-11T09:29:24.591Z,13.30
2018-04-11T09:30:30.867Z,14.10
2018-04-11T09:31:37.143Z,14.32
2018-04-11T09:32:43.480Z,13.40
2018-04-11T09:33:49.754Z,13.10
2018-04-11T09:34:55.901Z,13.88
2018-04-11T09:36:02.241Z,14.55
2018-04-11T09:37:09.055Z,13.25
2018-04-11T09:38:15.884Z,14.27
2018-04-11T09:39:22.136Z,13.48
2018-04-11T09:40:28.382Z,13.38
2018-04-11T09:41:35.168Z,13.13
2018-04-11T09:42:41.419Z,14.38
2018-04-11T09:43:47.941Z,13.98
2018-04-11T09:44:54.315Z,13.40
2018-04-11T09:46:00.798Z,13.55
2018-04-11T09:47:07.897Z,14.25
2018-04-11T09:48:15.251Z,14.07
2018-04-11T09:49:21.509Z,13.40
2018-04-11T09:50:27.967Z,14.05
2018-04-11T09:51:34.241Z,14.60
2018-04-11T09:52:40.706Z,12.60
2018-04-11T09:53:50.147Z,13.45
2018-04-11T09:54:57.120Z,12.85
2018-04-11T09:56:03.151Z,14.50
2018-04-11T09:57:09.370Z,13.27
2018-04-11T09:58:15.711Z,13.52
2018-04-11T09:59:21.997Z,14.70
2018-04-11T10:00:28.287Z,13.18
2018-04-11T10:01:50.320Z,13.80
2018-04-11T10:03:02.760Z,13.52
2018-04-11T10:04:09.051Z,13.62
2018-04-11T10:05:15.372Z,13.57
2018-04-11T10:06:21.679Z,13.57
2018-04-11T10:07:28.397Z,13.07
2018-04-11T10:08:34.683Z,13.95
2018-04-11T10:09:41.019Z,14.45
2018-04-11T10:10:47.355Z,13.00
2018-04-11T10:11:53.732Z,14.48
2018-04-11T10:12:59.903Z,14.73
2018-04-11T10:14:06.149Z,13.15
2018-04-11T10:15:12.366Z,14.15
2018-04-11T10:16:18.602Z,14.10
2018-04-11T10:17:24.882Z,13.82
2018-04-11T10:18:30.863Z,12.90
2018-04-11T10:19:37.082Z,14.43
2018-04-11T10:20:43.438Z,13.77
2018-04-11T10:21:49.501Z,12.77
2018-04-11T10:22:55.615Z,13.10
2018-04-11T10:24:04.059Z,12.60
2018-04-11T10:25:10.228Z,13.02
2018-04-11T10:26:16.186Z,13.02
2018-04-11T10:27:22.507Z,13.65
2018-04-11T10:28:28.858Z,15.05
2018-04-11T10:29:35.205Z,13.25
2018-04-11T10:30:41.481Z,14.70
2018-04-11T10:31:47.821Z,14.48
2018-04-11T10:32:54.115Z,13.23
2018-04-11T10:34:00.444Z,13.40
2018-04-11T10:35:07.211Z,14.35
2018-04-11T10:36:13.222Z,15.00
2018-04-11T10:37:19.533Z,14.10
2018-04-11T10:38:25.837Z,15.45
2018-04-11T10:39:33.232Z,14.40
2018-04-11T10:40:40.752Z,15.57
2018-04-11T10:41:47.068Z,13.95
2018-04-11T10:42:53.364Z,16.15
2018-04-11T10:43:59.662Z,15.85
2018-04-11T10:45:05.860Z,14.65
2018-04-11T10:46:12.134Z,15.65
2018-04-11T10:47:18.580Z,14.52
2018-04-11T10:48:24.795Z,14.87
2018-04-11T10:49:31.023Z,16.55
2018-04-11T10:50:37.995Z,13.80
2018-04-11T10:51:45.139Z,14.60
2018-04-11T10:52:51.465Z,14.65
2018-04-11T10:53:57.640Z,15.07
2018-04-11T10:55:05.393Z,14.80
2018-04-11T10:56:12.367Z,15.32
2018-04-11T10:57:18.699Z,15.25
2018-04-11T10:58:24.997Z,14.98
2018-04-11T10:59:31.274Z,16.98
2018-04-11T11:00:37.662Z,15.15
2018-04-11T11:01:43.705Z,16.12
2018-04-11T11:02:50.051Z,15.98
2018-04-11T11:03:56.319Z,16.92
2018-04-11T11:05:02.552Z,16.10
2018-04-11T11:06:08.867Z,16.17
2018-04-11T11:07:15.626Z,15.70
2018-04-11T11:08:21.892Z,15.25
2018-04-11T11:09:28.403Z,15.32
2018-04-11T11:10:34.460Z,17.00
2018-04-11T11:11:40.718Z,16.52
2018-04-11T11:12:46.719Z,16.42
2018-04-11T11:13:52.946Z,15.48
2018-04-11T11:14:59.307Z,15.60
2018-04-11T11:16:18.850Z,17.00
2018-04-11T11:17:24.798Z,17.15
2018-04-11T11:18:30.767Z,16.80
2018-04-11T11:19:36.096Z,16.02
2018-04-11T11:20:53.207Z,15.45
2018-04-11T11:21:59.211Z,16.27
2018-04-11T11:23:05.467Z,14.55
2018-04-11T11:24:11.742Z,14.80
2018-04-11T11:25:17.716Z,15.70
2018-04-11T11:26:24.551Z,14.65
2018-04-11T11:27:30.770Z,15.80
2018-04-11T11:28:36.791Z,15.32
2018-04-11T11:29:43.002Z,16.52
2018-04-11T11:30:49.324Z,15.50
2018-04-11T11:31:55.626Z,14.50
2018-04-11T11:33:02.098Z,15.80
2018-04-11T11:34:08.122Z,14.60
2018-04-11T11:35:14.138Z,15.60
2018-04-11T11:36:20.460Z,14.80
2018-04-11T11:37:29.251Z,14.65
2018-04-11T11:38:35.519Z,14.82
2018-04-11T11:39:41.523Z,15.18
2018-04-11T11:40:48.103Z,14.60
2018-04-11T11:41:54.897Z,13.93
2018-04-11T11:43:03.871Z,13.93
2018-04-11T11:44:09.804Z,14.45
2018-04-11T11:45:16.081Z,14.82
2018-04-11T11:46:22.399Z,14.68
2018-04-11T11:47:28.683Z,14.07
2018-04-11T11:48:35.787Z,14.43
2018-04-11T11:49:43.270Z,14.90
2018-04-11T11:50:50.065Z,15.05
2018-04-11T11:51:57.452Z,13.88
2018-04-11T11:53:05.978Z,14.40
2018-04-11T11:54:14.694Z,15.02
2018-04-11T11:55:22.516Z,14.82
2018-04-11T11:56:31.025Z,14.90
2018-04-11T11:57:38.049Z,15.18
2018-04-11T11:58:44.902Z,13.80
2018-04-11T11:59:51.724Z,14.60
2018-04-11T12:01:00.316Z,15.65
2018-04-11T12:02:07.745Z,16.20
2018-04-11T12:03:15.212Z,15.85
2018-04-11T12:04:21.562Z,15.35
2018-04-11T12:05:28.577Z,15.65
2018-04-11T12:06:35.809Z,15.80
2018-04-11T12:07:42.522Z,14.75
2018-04-11T12:08:49.196Z,14.70
2018-04-11T12:09:56.795Z,14.85
2018-04-11T12:11:03.310Z,15.10
2018-04-11T12:12:10.543Z,15.02
2018-04-11T12:13:18.972Z,15.40
2018-04-11T12:14:26.012Z,14.57
2018-04-11T12:15:33.163Z,15.82
2018-04-11T12:16:39.874Z,14.18
2018-04-11T12:17:46.401Z,15.50
2018-04-11T12:18:53.130Z,15.15
2018-04-11T12:20:00.871Z,14.75
2018-04-11T12:21:07.666Z,14.07
2018-04-11T12:22:17.867Z,13.98
2018-04-11T12:23:26.555Z,15.95
2018-04-11T12:24:35.912Z,14.40
2018-04-11T12:25:43.072Z,13.95
2018-04-11T12:26:49.758Z,14.38
2018-04-11T12:27:56.411Z,15.32
2018-04-11T12:29:02.782Z,14.60
2018-04-11T12:30:11.074Z,13.18
2018-04-11T12:31:18.176Z,13.85
2018-04-11T12:32:24.830Z,13.40
2018-04-11T12:33:32.064Z,13.48
2018-04-11T12:34:39.400Z,13.62
2018-04-11T12:35:47.861Z,13.77
2018-04-11T12:36:54.993Z,13.48
2018-04-11T12:38:02.323Z,13.05
2018-04-11T12:39:10.291Z,13.05
2018-04-11T12:40:21.058Z,13.02
2018-04-11T12:41:27.623Z,13.40
2018-04-11T12:42:34.375Z,13.75
2018-04-11T12:43:41.193Z,13.52
2018-04-11T12:44:48.391Z,14.43
2018-04-11T12:45:54.628Z,13.93
2018-04-11T12:47:03.349Z,14.15
2018-04-11T12:48:11.355Z,14.10
2018-04-11T12:49:18.740Z,14.52
2018-04-11T12:50:26.818Z,13.95
2018-04-11T12:51:33.831Z,14.05
2018-04-11T12:52:40.613Z,13.88
2018-04-11T12:53:47.067Z,14.60
2018-04-11T12:54:53.997Z,13.68
2018-04-11T12:56:01.120Z,14.40
2018-04-11T12:57:07.952Z,14.70
2018-04-11T12:58:14.397Z,14.50
2018-04-11T12:59:22.279Z,15.10
2018-04-11T13:00:29.445Z,14.75
2018-04-11T13:01:36.243Z,14.60
2018-04-11T13:02:42.618Z,14.52
2018-04-11T13:03:48.967Z,14.52
2018-04-11T13:04:55.305Z,15.07
2018-04-11T13:06:01.592Z,13.95
2018-04-11T13:07:09.380Z,13.60
2018-04-11T13:08:15.878Z,13.62
2018-04-11T13:09:22.787Z,12.98
2018-04-11T13:10:29.741Z,13.25
2018-04-11T13:11:36.278Z,12.73
2018-04-11T13:12:47.076Z,12.82
2018-04-11T13:13:53.846Z,11.60
2018-04-11T13:15:00.887Z,11.65
2018-04-11T13:16:07.198Z,11.43
2018-04-11T13:17:14.946Z,12.77
2018-04-11T13:18:24.042Z,13.05
2018-04-11T13:19:31.892Z,13.40
2018-04-11T13:20:41.489Z,11.48
2018-04-11T13:21:49.211Z,13.23
2018-04-11T13:22:56.447Z,14.02
2018-04-11T13:24:03.865Z,14.32
2018-04-11T13:25:11.370Z,15.75
2018-04-11T13:26:17.984Z,16.00
2018-04-11T13:27:24.773Z,14.68
2018-04-11T13:28:33.061Z,14.98
2018-04-11T13:29:41.199Z,14.35
2018-04-11T13:30:48.423Z,14.00
2018-04-11T13:31:57.799Z,15.65
2018-04-11T13:33:06.317Z,14.93
2018-04-11T13:34:13.082Z,15.35
2018-04-11T13:35:20.492Z,14.70
2018-04-11T13:36:27.044Z,13.88
2018-04-11T13:37:33.453Z,14.60
2018-04-11T13:38:40.378Z,14.30
2018-04-11T13:39:46.786Z,14.87
2018-04-11T13:40:53.186Z,15.65
2018-04-11T13:41:59.273Z,14.05
2018-04-11T13:43:05.548Z,15.45
2018-04-11T13:44:12.095Z,14.73
2018-04-11T13:45:18.479Z,15.05
2018-04-11T13:46:24.628Z,14.02
2018-04-11T13:47:31.043Z,14.98
2018-04-11T13:48:37.458Z,15.52
2018-04-11T13:49:43.847Z,15.55
2018-04-11T13:50:50.168Z,15.68
2018-04-11T13:51:56.515Z,14.75
2018-04-11T13:53:02.585Z,14.68
2018-04-11T13:54:09.024Z,15.68
2018-04-11T13:55:15.424Z,14.82
2018-04-11T13:56:21.635Z,14.63
2018-04-11T13:57:27.778Z,15.18
2018-04-11T13:58:34.158Z,13.68
2018-04-11T13:59:40.565Z,14.68
2018-04-11T14:00:46.954Z,15.18
2018-04-11T14:01:53.107Z,14.55
2018-04-11T14:02:59.490Z,15.82
2018-04-11T14:04:05.918Z,13.90
2018-04-11T14:05:12.903Z,13.55
2018-04-11T14:06:19.050Z,15.35
2018-04-11T14:07:26.971Z,14.15
2018-04-11T14:08:34.895Z,14.00
2018-04-11T14:09:40.922Z,14.75
2018-04-11T14:10:47.033Z,14.27
2018-04-11T14:11:53.507Z,13.65
2018-04-11T14:12:59.570Z,15.23
2018-04-11T14:14:06.012Z,15.13
2018-04-11T14:15:12.307Z,15.02
2018-04-11T14:16:18.386Z,15.80
2018-04-11T14:17:24.529Z,15.13
2018-04-11T14:18:30.915Z,14.85
2018-04-11T14:19:37.249Z,14.48
2018-04-11T14:20:43.562Z,13.82
2018-04-11T14:21:50.007Z,13.93
2018-04-11T14:22:58.085Z,12.90
2018-04-11T14:24:05.603Z,12.55
2018-04-11T14:25:13.335Z,13.15
2018-04-11T14:26:27.348Z,12.02
2018-04-11T14:27:33.660Z,12.90
2018-04-11T14:28:39.708Z,13.18
2018-04-11T14:29:45.980Z,13.40
2018-04-11T14:30:52.116Z,12.98
2018-04-11T14:31:58.276Z,14.02
2018-04-11T14:33:04.558Z,13.48